sensor_id;sensor_type;location;lat;lon;timestamp;P1;durP1;ratioP1;P2;durP2;ratioP2
32790;SDS011;19143;59.322;14.502;2023-05-19T00:00:17;5.63;;;1.90;;
32790;SDS011;19143;59.322;14.502;2023-05-19T00:02:44;1.90;;;1.80;;
32790;SDS011;19143;59.322;14.502;2023-05-19T00:05:10;2.00;;;1.80;;
32790;SDS011;19143;59.322;14.502;2023-05-19T00:07:39;1.90;;;1.80;;
32790;SDS011;19143;59.322;14.502;2023-05-19T00:10:07;1.93;;;1.83;;
32790;SDS011;19143;59.322;14.502;2023-05-19T00:12:33;2.30;;;2.00;;
32790;SDS011;19143;59.322;14.502;2023-05-19T00:15:03;1.70;;;1.60;;
32790;SDS011;19143;59.322;14.502;2023-05-19T00:17:29;3.63;;;1.87;;
32790;SDS011;19143;59.322;14.502;2023-05-19T00:19:58;5.13;;;1.90;;
32790;SDS011;19143;59.322;14.502;2023-05-19T00:22:25;2.00;;;1.90;;
32790;SDS011;19143;59.322;14.502;2023-05-19T00:24:52;1.87;;;1.87;;
32790;SDS011;19143;59.322;14.502;2023-05-19T00:27:18;2.00;;;1.90;;
32790;SDS011;19143;59.322;14.502;2023-05-19T00:29:45;5.33;;;1.70;;
32790;SDS011;19143;59.322;14.502;2023-05-19T00:32:13;2.97;;;2.20;;
32790;SDS011;19143;59.322;14.502;2023-05-19T00:34:40;2.30;;;1.93;;
32790;SDS011;19143;59.322;14.502;2023-05-19T00:37:07;5.93;;;3.30;;
32790;SDS011;19143;59.322;14.502;2023-05-19T00:39:33;5.27;;;3.20;;
32790;SDS011;19143;59.322;14.502;2023-05-19T00:42:00;2.70;;;2.27;;
32790;SDS011;19143;59.322;14.502;2023-05-19T00:44:27;2.73;;;2.50;;
32790;SDS011;19143;59.322;14.502;2023-05-19T00:46:53;2.50;;;2.30;;
32790;SDS011;19143;59.322;14.502;2023-05-19T00:49:21;2.70;;;2.20;;
32790;SDS011;19143;59.322;14.502;2023-05-19T00:51:48;7.47;;;2.67;;
32790;SDS011;19143;59.322;14.502;2023-05-19T00:54:15;3.20;;;2.60;;
32790;SDS011;19143;59.322;14.502;2023-05-19T00:56:41;4.60;;;2.93;;
32790;SDS011;19143;59.322;14.502;2023-05-19T00:59:08;5.87;;;3.07;;
32790;SDS011;19143;59.322;14.502;2023-05-19T01:01:34;4.40;;;2.80;;
32790;SDS011;19143;59.322;14.502;2023-05-19T01:04:01;2.83;;;2.60;;
32790;SDS011;19143;59.322;14.502;2023-05-19T01:06:30;2.83;;;2.20;;
32790;SDS011;19143;59.322;14.502;2023-05-19T01:08:57;5.30;;;2.80;;
32790;SDS011;19143;59.322;14.502;2023-05-19T01:11:24;2.83;;;2.60;;
32790;SDS011;19143;59.322;14.502;2023-05-19T01:13:50;3.10;;;2.67;;
32790;SDS011;19143;59.322;14.502;2023-05-19T01:16:18;2.67;;;2.20;;
32790;SDS011;19143;59.322;14.502;2023-05-19T01:18:49;2.37;;;2.20;;
32790;SDS011;19143;59.322;14.502;2023-05-19T01:21:39;3.10;;;2.10;;
32790;SDS011;19143;59.322;14.502;2023-05-19T01:24:12;2.03;;;1.93;;
32790;SDS011;19143;59.322;14.502;2023-05-19T01:26:55;3.30;;;1.90;;
32790;SDS011;19143;59.322;14.502;2023-05-19T01:29:27;3.33;;;2.40;;
32790;SDS011;19143;59.322;14.502;2023-05-19T01:31:56;1.70;;;1.60;;
32790;SDS011;19143;59.322;14.502;2023-05-19T01:34:24;2.00;;;1.90;;
32790;SDS011;19143;59.322;14.502;2023-05-19T01:36:52;3.37;;;1.80;;
32790;SDS011;19143;59.322;14.502;2023-05-19T01:39:20;2.10;;;2.00;;
32790;SDS011;19143;59.322;14.502;2023-05-19T01:41:46;2.13;;;1.93;;
32790;SDS011;19143;59.322;14.502;2023-05-19T01:44:13;1.70;;;1.60;;
32790;SDS011;19143;59.322;14.502;2023-05-19T01:46:40;2.17;;;1.97;;
32790;SDS011;19143;59.322;14.502;2023-05-19T01:49:08;1.67;;;1.60;;
32790;SDS011;19143;59.322;14.502;2023-05-19T01:51:35;3.53;;;1.77;;
32790;SDS011;19143;59.322;14.502;2023-05-19T01:54:01;10.70;;;1.90;;
32790;SDS011;19143;59.322;14.502;2023-05-19T01:56:30;1.77;;;1.67;;
32790;SDS011;19143;59.322;14.502;2023-05-19T01:59:01;1.97;;;1.83;;
32790;SDS011;19143;59.322;14.502;2023-05-19T02:01:34;1.80;;;1.70;;
32790;SDS011;19143;59.322;14.502;2023-05-19T02:04:09;5.07;;;2.27;;
32790;SDS011;19143;59.322;14.502;2023-05-19T02:06:40;2.20;;;2.00;;
32790;SDS011;19143;59.322;14.502;2023-05-19T02:09:11;2.00;;;1.90;;
32790;SDS011;19143;59.322;14.502;2023-05-19T02:11:39;1.73;;;1.63;;
32790;SDS011;19143;59.322;14.502;2023-05-19T02:14:14;2.07;;;1.97;;
32790;SDS011;19143;59.322;14.502;2023-05-19T02:16:43;2.20;;;2.00;;
32790;SDS011;19143;59.322;14.502;2023-05-19T02:19:18;2.20;;;2.10;;
32790;SDS011;19143;59.322;14.502;2023-05-19T02:21:46;3.10;;;2.33;;
32790;SDS011;19143;59.322;14.502;2023-05-19T02:24:13;2.87;;;2.23;;
32790;SDS011;19143;59.322;14.502;2023-05-19T02:26:40;2.20;;;2.10;;
32790;SDS011;19143;59.322;14.502;2023-05-19T02:29:07;2.20;;;2.10;;
32790;SDS011;19143;59.322;14.502;2023-05-19T02:31:33;2.60;;;2.20;;
32790;SDS011;19143;59.322;14.502;2023-05-19T02:34:00;2.23;;;2.00;;
32790;SDS011;19143;59.322;14.502;2023-05-19T02:36:26;5.07;;;2.27;;
32790;SDS011;19143;59.322;14.502;2023-05-19T02:38:54;4.53;;;2.30;;
32790;SDS011;19143;59.322;14.502;2023-05-19T02:41:21;2.60;;;2.40;;
32790;SDS011;19143;59.322;14.502;2023-05-19T02:43:47;2.90;;;2.10;;
32790;SDS011;19143;59.322;14.502;2023-05-19T02:46:14;9.20;;;2.83;;
32790;SDS011;19143;59.322;14.502;2023-05-19T02:48:40;10.13;;;2.13;;
32790;SDS011;19143;59.322;14.502;2023-05-19T02:51:07;2.23;;;2.13;;
32790;SDS011;19143;59.322;14.502;2023-05-19T02:53:34;2.20;;;2.10;;
32790;SDS011;19143;59.322;14.502;2023-05-19T02:56:03;2.10;;;2.00;;
32790;SDS011;19143;59.322;14.502;2023-05-19T02:58:30;2.50;;;2.30;;
32790;SDS011;19143;59.322;14.502;2023-05-19T03:00:56;2.30;;;2.17;;
32790;SDS011;19143;59.322;14.502;2023-05-19T03:03:23;4.90;;;2.20;;
32790;SDS011;19143;59.322;14.502;2023-05-19T03:05:50;2.13;;;2.03;;
32790;SDS011;19143;59.322;14.502;2023-05-19T03:08:17;2.20;;;2.10;;
32790;SDS011;19143;59.322;14.502;2023-05-19T03:10:44;1.90;;;1.80;;
32790;SDS011;19143;59.322;14.502;2023-05-19T03:13:12;2.00;;;1.90;;
32790;SDS011;19143;59.322;14.502;2023-05-19T03:15:41;2.93;;;2.00;;
32790;SDS011;19143;59.322;14.502;2023-05-19T03:18:09;2.10;;;2.00;;
32790;SDS011;19143;59.322;14.502;2023-05-19T03:20:36;2.40;;;2.20;;
32790;SDS011;19143;59.322;14.502;2023-05-19T03:23:02;1.80;;;1.70;;
32790;SDS011;19143;59.322;14.502;2023-05-19T03:25:29;2.20;;;2.00;;
32790;SDS011;19143;59.322;14.502;2023-05-19T03:27:55;2.40;;;2.00;;
32790;SDS011;19143;59.322;14.502;2023-05-19T03:30:23;2.20;;;2.10;;
32790;SDS011;19143;59.322;14.502;2023-05-19T03:32:50;2.00;;;1.90;;
32790;SDS011;19143;59.322;14.502;2023-05-19T03:35:17;2.10;;;1.77;;
32790;SDS011;19143;59.322;14.502;2023-05-19T03:37:43;1.97;;;1.73;;
32790;SDS011;19143;59.322;14.502;2023-05-19T03:40:11;2.43;;;1.70;;
32790;SDS011;19143;59.322;14.502;2023-05-19T03:42:38;3.30;;;2.00;;
32790;SDS011;19143;59.322;14.502;2023-05-19T03:45:05;1.97;;;1.87;;
32790;SDS011;19143;59.322;14.502;2023-05-19T03:47:33;7.50;;;1.80;;
32790;SDS011;19143;59.322;14.502;2023-05-19T03:50:00;1.57;;;1.53;;
32790;SDS011;19143;59.322;14.502;2023-05-19T03:52:26;4.23;;;1.90;;
32790;SDS011;19143;59.322;14.502;2023-05-19T03:54:53;1.90;;;1.80;;
32790;SDS011;19143;59.322;14.502;2023-05-19T03:57:19;2.13;;;2.00;;
32790;SDS011;19143;59.322;14.502;2023-05-19T03:59:46;3.73;;;1.90;;
32790;SDS011;19143;59.322;14.502;2023-05-19T04:02:13;2.60;;;2.37;;
32790;SDS011;19143;59.322;14.502;2023-05-19T04:04:41;2.17;;;2.07;;
32790;SDS011;19143;59.322;14.502;2023-05-19T04:07:07;3.47;;;2.57;;
32790;SDS011;19143;59.322;14.502;2023-05-19T04:09:34;2.67;;;2.50;;
32790;SDS011;19143;59.322;14.502;2023-05-19T04:12:01;3.47;;;3.00;;
32790;SDS011;19143;59.322;14.502;2023-05-19T04:14:28;4.57;;;3.00;;
32790;SDS011;19143;59.322;14.502;2023-05-19T04:16:54;5.30;;;2.80;;
32790;SDS011;19143;59.322;14.502;2023-05-19T04:19:21;3.87;;;3.43;;
32790;SDS011;19143;59.322;14.502;2023-05-19T04:21:56;4.50;;;3.47;;
32790;SDS011;19143;59.322;14.502;2023-05-19T04:24:22;3.50;;;3.17;;
32790;SDS011;19143;59.322;14.502;2023-05-19T04:26:49;3.57;;;3.13;;
32790;SDS011;19143;59.322;14.502;2023-05-19T04:29:16;3.70;;;3.30;;
32790;SDS011;19143;59.322;14.502;2023-05-19T04:31:43;7.13;;;3.23;;
32790;SDS011;19143;59.322;14.502;2023-05-19T04:34:09;4.57;;;3.47;;
32790;SDS011;19143;59.322;14.502;2023-05-19T04:36:36;5.07;;;3.37;;
32790;SDS011;19143;59.322;14.502;2023-05-19T04:39:04;3.77;;;3.20;;
32790;SDS011;19143;59.322;14.502;2023-05-19T04:41:38;2.83;;;2.67;;
32790;SDS011;19143;59.322;14.502;2023-05-19T04:44:06;2.97;;;2.80;;
32790;SDS011;19143;59.322;14.502;2023-05-19T04:46:33;2.70;;;2.50;;
32790;SDS011;19143;59.322;14.502;2023-05-19T04:49:00;3.17;;;2.97;;
32790;SDS011;19143;59.322;14.502;2023-05-19T04:51:27;2.70;;;2.50;;
32790;SDS011;19143;59.322;14.502;2023-05-19T04:53:55;2.47;;;2.27;;
32790;SDS011;19143;59.322;14.502;2023-05-19T04:56:23;2.73;;;2.50;;
32790;SDS011;19143;59.322;14.502;2023-05-19T04:58:51;2.70;;;2.50;;
32790;SDS011;19143;59.322;14.502;2023-05-19T05:01:17;4.30;;;2.20;;
32790;SDS011;19143;59.322;14.502;2023-05-19T05:03:46;2.63;;;2.43;;
32790;SDS011;19143;59.322;14.502;2023-05-19T05:06:12;2.50;;;2.30;;
32790;SDS011;19143;59.322;14.502;2023-05-19T05:08:39;4.97;;;2.50;;
32790;SDS011;19143;59.322;14.502;2023-05-19T05:11:06;2.57;;;2.37;;
32790;SDS011;19143;59.322;14.502;2023-05-19T05:13:35;13.47;;;2.43;;
32790;SDS011;19143;59.322;14.502;2023-05-19T05:16:02;6.43;;;2.20;;
32790;SDS011;19143;59.322;14.502;2023-05-19T05:18:30;4.97;;;2.10;;
32790;SDS011;19143;59.322;14.502;2023-05-19T05:20:57;2.40;;;2.30;;
32790;SDS011;19143;59.322;14.502;2023-05-19T05:23:24;5.00;;;2.33;;
32790;SDS011;19143;59.322;14.502;2023-05-19T05:25:51;11.03;;;2.27;;
32790;SDS011;19143;59.322;14.502;2023-05-19T05:28:18;3.17;;;1.83;;
32790;SDS011;19143;59.322;14.502;2023-05-19T05:30:46;3.97;;;1.67;;
32790;SDS011;19143;59.322;14.502;2023-05-19T05:33:13;2.27;;;2.03;;
32790;SDS011;19143;59.322;14.502;2023-05-19T05:35:40;2.13;;;1.73;;
32790;SDS011;19143;59.322;14.502;2023-05-19T05:38:06;1.40;;;1.40;;
32790;SDS011;19143;59.322;14.502;2023-05-19T05:40:35;2.53;;;1.90;;
32790;SDS011;19143;59.322;14.502;2023-05-19T05:43:02;2.43;;;1.43;;
32790;SDS011;19143;59.322;14.502;2023-05-19T05:45:28;2.90;;;1.50;;
32790;SDS011;19143;59.322;14.502;2023-05-19T05:47:56;5.00;;;1.70;;
32790;SDS011;19143;59.322;14.502;2023-05-19T05:50:23;3.40;;;1.87;;
32790;SDS011;19143;59.322;14.502;2023-05-19T05:52:50;1.47;;;1.40;;
32790;SDS011;19143;59.322;14.502;2023-05-19T05:55:19;1.50;;;1.40;;
32790;SDS011;19143;59.322;14.502;2023-05-19T05:57:48;1.60;;;1.50;;
32790;SDS011;19143;59.322;14.502;2023-05-19T06:00:16;3.00;;;1.60;;
32790;SDS011;19143;59.322;14.502;2023-05-19T06:02:44;1.80;;;1.50;;
32790;SDS011;19143;59.322;14.502;2023-05-19T06:05:13;1.43;;;1.37;;
32790;SDS011;19143;59.322;14.502;2023-05-19T06:07:39;2.47;;;1.70;;
32790;SDS011;19143;59.322;14.502;2023-05-19T06:10:06;4.33;;;1.80;;
32790;SDS011;19143;59.322;14.502;2023-05-19T06:12:34;2.83;;;1.90;;
32790;SDS011;19143;59.322;14.502;2023-05-19T06:15:04;3.13;;;2.13;;
32790;SDS011;19143;59.322;14.502;2023-05-19T06:17:31;5.90;;;2.40;;
32790;SDS011;19143;59.322;14.502;2023-05-19T06:19:59;2.13;;;2.03;;
32790;SDS011;19143;59.322;14.502;2023-05-19T06:22:27;2.77;;;1.93;;
32790;SDS011;19143;59.322;14.502;2023-05-19T06:24:54;1.93;;;1.87;;
32790;SDS011;19143;59.322;14.502;2023-05-19T06:27:20;5.43;;;1.70;;
32790;SDS011;19143;59.322;14.502;2023-05-19T06:29:47;3.23;;;2.13;;
32790;SDS011;19143;59.322;14.502;2023-05-19T06:32:13;4.80;;;1.90;;
32790;SDS011;19143;59.322;14.502;2023-05-19T06:34:40;3.07;;;1.97;;
32790;SDS011;19143;59.322;14.502;2023-05-19T06:37:07;10.40;;;2.33;;
32790;SDS011;19143;59.322;14.502;2023-05-19T06:39:36;7.50;;;1.60;;
32790;SDS011;19143;59.322;14.502;2023-05-19T06:42:03;1.87;;;1.70;;
32790;SDS011;19143;59.322;14.502;2023-05-19T06:44:29;2.57;;;2.33;;
32790;SDS011;19143;59.322;14.502;2023-05-19T06:46:56;16.93;;;2.23;;
32790;SDS011;19143;59.322;14.502;2023-05-19T06:49:22;2.27;;;1.97;;
32790;SDS011;19143;59.322;14.502;2023-05-19T06:51:53;15.70;;;2.40;;
32790;SDS011;19143;59.322;14.502;2023-05-19T06:54:19;7.63;;;2.03;;
32790;SDS011;19143;59.322;14.502;2023-05-19T06:56:47;2.87;;;1.60;;
32790;SDS011;19143;59.322;14.502;2023-05-19T06:59:14;2.30;;;1.60;;
32790;SDS011;19143;59.322;14.502;2023-05-19T07:01:41;4.23;;;1.70;;
32790;SDS011;19143;59.322;14.502;2023-05-19T07:04:07;2.90;;;1.73;;
32790;SDS011;19143;59.322;14.502;2023-05-19T07:06:41;1.80;;;1.70;;
32790;SDS011;19143;59.322;14.502;2023-05-19T07:09:07;3.00;;;2.00;;
32790;SDS011;19143;59.322;14.502;2023-05-19T07:11:34;3.87;;;1.67;;
32790;SDS011;19143;59.322;14.502;2023-05-19T07:14:02;2.70;;;1.50;;
32790;SDS011;19143;59.322;14.502;2023-05-19T07:16:34;2.13;;;1.80;;
32790;SDS011;19143;59.322;14.502;2023-05-19T07:19:01;1.83;;;1.70;;
32790;SDS011;19143;59.322;14.502;2023-05-19T07:21:27;2.10;;;1.50;;
32790;SDS011;19143;59.322;14.502;2023-05-19T07:23:54;2.30;;;1.57;;
32790;SDS011;19143;59.322;14.502;2023-05-19T07:26:20;3.13;;;1.80;;
32790;SDS011;19143;59.322;14.502;2023-05-19T07:28:51;5.53;;;1.60;;
32790;SDS011;19143;59.322;14.502;2023-05-19T07:31:19;2.87;;;1.70;;
32790;SDS011;19143;59.322;14.502;2023-05-19T07:33:46;4.60;;;1.63;;
32790;SDS011;19143;59.322;14.502;2023-05-19T07:36:13;2.67;;;1.60;;
32790;SDS011;19143;59.322;14.502;2023-05-19T07:38:39;1.80;;;1.70;;
32790;SDS011;19143;59.322;14.502;2023-05-19T07:41:06;2.93;;;1.70;;
32790;SDS011;19143;59.322;14.502;2023-05-19T07:43:32;2.33;;;1.63;;
32790;SDS011;19143;59.322;14.502;2023-05-19T07:45:59;1.97;;;1.60;;
32790;SDS011;19143;59.322;14.502;2023-05-19T07:48:27;1.50;;;1.50;;
32790;SDS011;19143;59.322;14.502;2023-05-19T07:50:54;2.20;;;1.40;;
32790;SDS011;19143;59.322;14.502;2023-05-19T07:53:20;2.53;;;1.73;;
32790;SDS011;19143;59.322;14.502;2023-05-19T07:55:47;2.40;;;1.70;;
32790;SDS011;19143;59.322;14.502;2023-05-19T07:58:13;5.37;;;1.90;;
32790;SDS011;19143;59.322;14.502;2023-05-19T08:00:40;3.80;;;2.00;;
32790;SDS011;19143;59.322;14.502;2023-05-19T08:03:07;1.40;;;1.40;;
32790;SDS011;19143;59.322;14.502;2023-05-19T08:05:35;1.67;;;1.43;;
32790;SDS011;19143;59.322;14.502;2023-05-19T08:08:02;2.00;;;1.80;;
32790;SDS011;19143;59.322;14.502;2023-05-19T08:10:29;2.10;;;1.50;;
32790;SDS011;19143;59.322;14.502;2023-05-19T08:12:55;2.17;;;1.53;;
32790;SDS011;19143;59.322;14.502;2023-05-19T08:15:22;2.13;;;1.47;;
32790;SDS011;19143;59.322;14.502;2023-05-19T08:17:49;3.17;;;1.57;;
32790;SDS011;19143;59.322;14.502;2023-05-19T08:20:15;10.50;;;1.93;;
32790;SDS011;19143;59.322;14.502;2023-05-19T08:22:44;2.67;;;1.80;;
32790;SDS011;19143;59.322;14.502;2023-05-19T08:25:13;5.43;;;2.00;;
32790;SDS011;19143;59.322;14.502;2023-05-19T08:27:39;2.47;;;1.87;;
32790;SDS011;19143;59.322;14.502;2023-05-19T08:30:06;1.60;;;1.50;;
32790;SDS011;19143;59.322;14.502;2023-05-19T08:32:33;3.50;;;1.30;;
32790;SDS011;19143;59.322;14.502;2023-05-19T08:34:59;2.60;;;1.83;;
32790;SDS011;19143;59.322;14.502;2023-05-19T08:37:26;1.70;;;1.60;;
32790;SDS011;19143;59.322;14.502;2023-05-19T08:39:54;2.20;;;1.70;;
32790;SDS011;19143;59.322;14.502;2023-05-19T08:42:22;2.53;;;1.50;;
32790;SDS011;19143;59.322;14.502;2023-05-19T08:44:48;3.47;;;1.50;;
32790;SDS011;19143;59.322;14.502;2023-05-19T08:47:15;3.13;;;1.50;;
32790;SDS011;19143;59.322;14.502;2023-05-19T08:49:43;1.77;;;1.60;;
32790;SDS011;19143;59.322;14.502;2023-05-19T08:52:13;4.63;;;1.90;;
32790;SDS011;19143;59.322;14.502;2023-05-19T08:54:44;1.53;;;1.10;;
32790;SDS011;19143;59.322;14.502;2023-05-19T08:57:13;4.13;;;1.70;;
32790;SDS011;19143;59.322;14.502;2023-05-19T08:59:40;1.50;;;1.33;;
32790;SDS011;19143;59.322;14.502;2023-05-19T09:02:08;1.80;;;1.40;;
32790;SDS011;19143;59.322;14.502;2023-05-19T09:04:36;3.50;;;1.50;;
32790;SDS011;19143;59.322;14.502;2023-05-19T09:07:03;4.43;;;2.00;;
32790;SDS011;19143;59.322;14.502;2023-05-19T09:09:30;1.67;;;1.57;;
32790;SDS011;19143;59.322;14.502;2023-05-19T09:11:57;3.27;;;1.50;;
32790;SDS011;19143;59.322;14.502;2023-05-19T09:14:25;3.90;;;1.40;;
32790;SDS011;19143;59.322;14.502;2023-05-19T09:16:51;1.50;;;1.40;;
32790;SDS011;19143;59.322;14.502;2023-05-19T09:19:18;3.50;;;1.67;;
32790;SDS011;19143;59.322;14.502;2023-05-19T09:21:49;3.30;;;1.60;;
32790;SDS011;19143;59.322;14.502;2023-05-19T09:24:22;5.97;;;2.00;;
32790;SDS011;19143;59.322;14.502;2023-05-19T09:26:50;4.37;;;1.50;;
32790;SDS011;19143;59.322;14.502;2023-05-19T09:29:20;5.03;;;1.77;;
32790;SDS011;19143;59.322;14.502;2023-05-19T09:31:49;4.07;;;1.40;;
32790;SDS011;19143;59.322;14.502;2023-05-19T09:34:15;5.50;;;1.50;;
32790;SDS011;19143;59.322;14.502;2023-05-19T09:36:42;4.33;;;1.63;;
32790;SDS011;19143;59.322;14.502;2023-05-19T09:39:13;3.37;;;1.80;;
32790;SDS011;19143;59.322;14.502;2023-05-19T09:41:39;13.47;;;1.57;;
32790;SDS011;19143;59.322;14.502;2023-05-19T09:44:06;8.13;;;2.10;;
32790;SDS011;19143;59.322;14.502;2023-05-19T09:46:33;3.40;;;1.50;;
32790;SDS011;19143;59.322;14.502;2023-05-19T09:49:05;1.93;;;1.60;;
32790;SDS011;19143;59.322;14.502;2023-05-19T09:51:33;2.50;;;1.47;;
32790;SDS011;19143;59.322;14.502;2023-05-19T09:54:00;2.10;;;1.60;;
32790;SDS011;19143;59.322;14.502;2023-05-19T09:56:30;4.50;;;1.60;;
32790;SDS011;19143;59.322;14.502;2023-05-19T09:58:57;2.67;;;1.50;;
32790;SDS011;19143;59.322;14.502;2023-05-19T10:01:24;5.73;;;1.50;;
32790;SDS011;19143;59.322;14.502;2023-05-19T10:03:51;2.50;;;1.50;;
32790;SDS011;19143;59.322;14.502;2023-05-19T10:06:20;5.50;;;1.40;;
32790;SDS011;19143;59.322;14.502;2023-05-19T10:08:55;2.63;;;1.87;;
32790;SDS011;19143;59.322;14.502;2023-05-19T10:11:26;5.83;;;1.80;;
32790;SDS011;19143;59.322;14.502;2023-05-19T10:13:55;1.40;;;1.30;;
32790;SDS011;19143;59.322;14.502;2023-05-19T10:16:22;5.07;;;1.70;;
32790;SDS011;19143;59.322;14.502;2023-05-19T10:18:52;1.90;;;1.20;;
32790;SDS011;19143;59.322;14.502;2023-05-19T10:21:24;3.93;;;2.00;;
32790;SDS011;19143;59.322;14.502;2023-05-19T10:23:51;7.13;;;1.80;;
32790;SDS011;19143;59.322;14.502;2023-05-19T10:26:17;3.03;;;1.57;;
32790;SDS011;19143;59.322;14.502;2023-05-19T10:28:45;6.53;;;1.73;;
32790;SDS011;19143;59.322;14.502;2023-05-19T10:31:15;2.43;;;1.60;;
32790;SDS011;19143;59.322;14.502;2023-05-19T10:33:47;2.53;;;1.53;;
32790;SDS011;19143;59.322;14.502;2023-05-19T10:36:31;4.17;;;1.93;;
32790;SDS011;19143;59.322;14.502;2023-05-19T10:39:03;5.63;;;1.50;;
32790;SDS011;19143;59.322;14.502;2023-05-19T10:41:33;3.43;;;1.60;;
32790;SDS011;19143;59.322;14.502;2023-05-19T10:44:06;2.10;;;1.67;;
32790;SDS011;19143;59.322;14.502;2023-05-19T10:46:35;2.90;;;1.67;;
32790;SDS011;19143;59.322;14.502;2023-05-19T10:49:01;4.47;;;1.50;;
32790;SDS011;19143;59.322;14.502;2023-05-19T10:51:30;4.27;;;1.73;;
32790;SDS011;19143;59.322;14.502;2023-05-19T10:53:57;6.57;;;2.00;;
32790;SDS011;19143;59.322;14.502;2023-05-19T10:56:27;1.60;;;1.50;;
32790;SDS011;19143;59.322;14.502;2023-05-19T10:58:58;10.63;;;2.10;;
32790;SDS011;19143;59.322;14.502;2023-05-19T11:01:29;7.10;;;1.70;;
32790;SDS011;19143;59.322;14.502;2023-05-19T11:03:55;3.30;;;1.67;;
32790;SDS011;19143;59.322;14.502;2023-05-19T11:06:25;2.30;;;1.83;;
32790;SDS011;19143;59.322;14.502;2023-05-19T11:09:03;3.70;;;1.70;;
32790;SDS011;19143;59.322;14.502;2023-05-19T11:11:44;1.73;;;1.40;;
32790;SDS011;19143;59.322;14.502;2023-05-19T11:14:10;2.90;;;1.53;;
32790;SDS011;19143;59.322;14.502;2023-05-19T11:16:38;3.43;;;1.67;;
32790;SDS011;19143;59.322;14.502;2023-05-19T11:19:15;3.00;;;1.53;;
32790;SDS011;19143;59.322;14.502;2023-05-19T11:21:46;1.50;;;1.50;;
32790;SDS011;19143;59.322;14.502;2023-05-19T11:26:56;3.07;;;1.53;;
32790;SDS011;19143;59.322;14.502;2023-05-19T11:29:23;2.60;;;1.50;;
32790;SDS011;19143;59.322;14.502;2023-05-19T11:31:50;2.50;;;1.50;;
32790;SDS011;19143;59.322;14.502;2023-05-19T11:34:17;2.20;;;1.20;;
32790;SDS011;19143;59.322;14.502;2023-05-19T11:36:46;2.23;;;1.50;;
32790;SDS011;19143;59.322;14.502;2023-05-19T11:39:12;4.37;;;1.90;;
32790;SDS011;19143;59.322;14.502;2023-05-19T11:41:39;2.00;;;1.90;;
32790;SDS011;19143;59.322;14.502;2023-05-19T11:44:10;1.93;;;1.60;;
32790;SDS011;19143;59.322;14.502;2023-05-19T11:46:36;2.43;;;1.60;;
32790;SDS011;19143;59.322;14.502;2023-05-19T11:49:03;2.10;;;1.60;;
32790;SDS011;19143;59.322;14.502;2023-05-19T11:51:30;1.80;;;1.53;;
32790;SDS011;19143;59.322;14.502;2023-05-19T11:53:57;3.57;;;1.60;;
32790;SDS011;19143;59.322;14.502;2023-05-19T11:56:24;2.23;;;1.30;;
32790;SDS011;19143;59.322;14.502;2023-05-19T11:58:51;5.13;;;1.30;;
32790;SDS011;19143;59.322;14.502;2023-05-19T12:01:22;4.03;;;1.60;;
32790;SDS011;19143;59.322;14.502;2023-05-19T12:03:50;4.30;;;1.60;;
32790;SDS011;19143;59.322;14.502;2023-05-19T12:06:24;4.03;;;1.53;;
32790;SDS011;19143;59.322;14.502;2023-05-19T12:08:51;4.17;;;1.50;;
32790;SDS011;19143;59.322;14.502;2023-05-19T12:11:17;2.33;;;1.50;;
32790;SDS011;19143;59.322;14.502;2023-05-19T12:13:44;4.37;;;1.63;;
32790;SDS011;19143;59.322;14.502;2023-05-19T12:16:12;2.97;;;1.60;;
32790;SDS011;19143;59.322;14.502;2023-05-19T12:18:40;1.67;;;1.47;;
32790;SDS011;19143;59.322;14.502;2023-05-19T12:21:06;2.80;;;1.57;;
32790;SDS011;19143;59.322;14.502;2023-05-19T12:23:33;1.90;;;1.47;;
32790;SDS011;19143;59.322;14.502;2023-05-19T12:25:59;3.47;;;1.53;;
32790;SDS011;19143;59.322;14.502;2023-05-19T12:28:28;2.87;;;1.63;;
32790;SDS011;19143;59.322;14.502;2023-05-19T12:30:55;3.13;;;1.60;;
32790;SDS011;19143;59.322;14.502;2023-05-19T12:33:22;3.67;;;1.60;;
32790;SDS011;19143;59.322;14.502;2023-05-19T12:35:51;2.27;;;1.47;;
32790;SDS011;19143;59.322;14.502;2023-05-19T12:38:19;8.00;;;1.60;;
32790;SDS011;19143;59.322;14.502;2023-05-19T12:40:46;3.17;;;1.50;;
32790;SDS011;19143;59.322;14.502;2023-05-19T12:43:19;3.90;;;1.50;;
32790;SDS011;19143;59.322;14.502;2023-05-19T12:45:46;4.03;;;1.63;;
32790;SDS011;19143;59.322;14.502;2023-05-19T12:48:13;1.63;;;1.53;;
32790;SDS011;19143;59.322;14.502;2023-05-19T12:50:41;2.10;;;1.50;;
32790;SDS011;19143;59.322;14.502;2023-05-19T12:53:09;5.40;;;1.60;;
32790;SDS011;19143;59.322;14.502;2023-05-19T12:55:37;2.93;;;1.60;;
32790;SDS011;19143;59.322;14.502;2023-05-19T12:58:05;6.63;;;1.73;;
32790;SDS011;19143;59.322;14.502;2023-05-19T13:00:32;3.90;;;1.63;;
32790;SDS011;19143;59.322;14.502;2023-05-19T13:03:00;4.53;;;1.63;;
32790;SDS011;19143;59.322;14.502;2023-05-19T13:05:29;7.67;;;1.63;;
32790;SDS011;19143;59.322;14.502;2023-05-19T13:07:58;3.30;;;1.70;;
32790;SDS011;19143;59.322;14.502;2023-05-19T13:10:28;2.60;;;1.50;;
32790;SDS011;19143;59.322;14.502;2023-05-19T13:12:55;2.40;;;1.50;;
32790;SDS011;19143;59.322;14.502;2023-05-19T13:15:23;5.37;;;1.70;;
32790;SDS011;19143;59.322;14.502;2023-05-19T13:17:50;4.00;;;1.90;;
32790;SDS011;19143;59.322;14.502;2023-05-19T13:20:17;1.83;;;1.40;;
32790;SDS011;19143;59.322;14.502;2023-05-19T13:22:44;2.23;;;1.93;;
32790;SDS011;19143;59.322;14.502;2023-05-19T13:25:10;3.70;;;1.50;;
32790;SDS011;19143;59.322;14.502;2023-05-19T13:27:38;1.63;;;1.50;;
32790;SDS011;19143;59.322;14.502;2023-05-19T13:30:06;3.60;;;1.57;;
32790;SDS011;19143;59.322;14.502;2023-05-19T13:32:32;1.87;;;1.67;;
32790;SDS011;19143;59.322;14.502;2023-05-19T13:34:59;3.07;;;1.50;;
32790;SDS011;19143;59.322;14.502;2023-05-19T13:37:26;5.87;;;1.77;;
32790;SDS011;19143;59.322;14.502;2023-05-19T13:39:52;4.07;;;1.60;;
32790;SDS011;19143;59.322;14.502;2023-05-19T13:42:19;4.43;;;2.00;;
32790;SDS011;19143;59.322;14.502;2023-05-19T13:44:47;4.10;;;1.93;;
32790;SDS011;19143;59.322;14.502;2023-05-19T13:47:14;4.33;;;1.90;;
32790;SDS011;19143;59.322;14.502;2023-05-19T13:49:41;1.60;;;1.50;;
32790;SDS011;19143;59.322;14.502;2023-05-19T13:52:08;7.73;;;1.90;;
32790;SDS011;19143;59.322;14.502;2023-05-19T13:54:35;9.20;;;2.10;;
32790;SDS011;19143;59.322;14.502;2023-05-19T13:57:02;4.00;;;1.80;;
32790;SDS011;19143;59.322;14.502;2023-05-19T13:59:30;5.07;;;1.80;;
32790;SDS011;19143;59.322;14.502;2023-05-19T14:01:58;2.73;;;1.70;;
32790;SDS011;19143;59.322;14.502;2023-05-19T14:04:26;8.77;;;1.80;;
32790;SDS011;19143;59.322;14.502;2023-05-19T14:06:53;6.80;;;2.13;;
32790;SDS011;19143;59.322;14.502;2023-05-19T14:09:20;5.10;;;2.17;;
32790;SDS011;19143;59.322;14.502;2023-05-19T14:11:47;4.70;;;2.00;;
32790;SDS011;19143;59.322;14.502;2023-05-19T14:14:14;2.43;;;1.70;;
32790;SDS011;19143;59.322;14.502;2023-05-19T14:16:41;9.23;;;1.70;;
32790;SDS011;19143;59.322;14.502;2023-05-19T14:19:10;3.57;;;1.70;;
32790;SDS011;19143;59.322;14.502;2023-05-19T14:21:36;1.67;;;1.50;;
32790;SDS011;19143;59.322;14.502;2023-05-19T14:24:03;2.10;;;1.50;;
32790;SDS011;19143;59.322;14.502;2023-05-19T14:26:30;2.03;;;1.67;;
32790;SDS011;19143;59.322;14.502;2023-05-19T14:28:57;3.80;;;1.63;;
32790;SDS011;19143;59.322;14.502;2023-05-19T14:31:23;6.43;;;1.50;;
32790;SDS011;19143;59.322;14.502;2023-05-19T14:33:50;4.93;;;2.13;;
32790;SDS011;19143;59.322;14.502;2023-05-19T14:36:19;3.07;;;1.87;;
32790;SDS011;19143;59.322;14.502;2023-05-19T14:38:45;7.73;;;1.97;;